Time;durP1;ratioP1;P1;durP2;ratioP2;P2;SDS_P1;SDS_P2;PMS_P1;PMS_P2;Temp;Humidity;BMP_temperature;BMP_pressure;BME280_temperature;BME280_humidity;BME280_pressure;Samples;Min_cycle;Max_cycle;Signal;HPM_P1;HPM_P2
2023/05/09 00:02:19;;;;;;;1.42;0.60;;;17.20;99.90;;;;;;1937417;73;21679;-73
2023/05/09 00:05:11;;;;;;;0.40;0.40;;;17.10;99.90;;;;;;1933333;73;21098;-73
2023/05/09 00:08:02;;;;;;;0.72;0.53;;;17.10;99.90;;;;;;1921686;73;21091;-73
2023/05/09 00:10:54;;;;;;;0.88;0.70;;;17.00;99.90;;;;;;1917084;75;21113;-73
2023/05/09 00:13:46;;;;;;;0.50;0.50;;;17.00;99.90;;;;;;1925110;73;21047;-73
2023/05/09 00:16:36;;;;;;;0.82;0.60;;;17.00;99.90;;;;;;1913692;73;21149;-73
2023/05/09 00:19:28;;;;;;;0.42;0.42;;;17.00;99.90;;;;;;1931577;73;21082;-73
2023/05/09 00:25:02;;;;;;;0.90;0.50;;;16.90;99.90;;;;;;1967691;72;22192;-73
2023/05/09 00:27:53;;;;;;;1.70;0.60;;;17.00;99.90;;;;;;1930839;73;21818;-73
2023/05/09 00:30:46;;;;;;;1.42;0.53;;;16.90;99.90;;;;;;1916651;74;21066;-73
2023/05/09 00:33:37;;;;;;;1.80;0.50;;;16.80;99.90;;;;;;1924941;73;21101;-73
2023/05/09 00:36:28;;;;;;;0.53;0.50;;;16.90;99.90;;;;;;1936814;73;21561;-73
2023/05/09 00:39:20;;;;;;;0.60;0.50;;;16.90;99.90;;;;;;1935921;73;21105;-73
2023/05/09 00:42:12;;;;;;;1.07;0.50;;;16.90;99.90;;;;;;1918469;73;21147;-73
2023/05/09 00:45:03;;;;;;;0.40;0.40;;;16.80;99.90;;;;;;1928819;73;21090;-73
2023/05/09 00:47:55;;;;;;;1.32;0.50;;;16.80;99.90;;;;;;1918542;73;21148;-73
2023/05/09 00:50:51;;;;;;;0.82;0.60;;;16.80;99.90;;;;;;1923791;73;21067;-73
2023/05/09 00:53:40;;;;;;;0.40;0.40;;;16.80;99.90;;;;;;1947763;73;21098;-73
2023/05/09 00:56:32;;;;;;;0.75;0.60;;;16.80;99.90;;;;;;1916921;75;21126;-73
2023/05/09 01:02:12;;;;;;;0.70;0.50;;;16.80;99.90;;;;;;1963185;72;22220;-73
2023/05/09 01:05:04;;;;;;;0.42;0.42;;;16.80;99.90;;;;;;1928610;73;21094;-73
2023/05/09 01:10:41;;;;;;;1.32;0.47;;;16.80;99.90;;;;;;1939912;72;22204;-74
2023/05/09 01:13:36;;;;;;;1.30;0.50;;;16.70;99.90;;;;;;1880104;75;21111;-74
2023/05/09 01:16:32;;;;;;;1.42;0.60;;;16.70;99.90;;;;;;1881390;75;21099;-73
2023/05/09 01:19:33;;;;;;;1.52;0.50;;;16.70;99.90;;;;;;1893123;75;21145;-74
2023/05/09 01:25:18;;;;;;;1.00;0.50;;;16.70;99.90;;;;;;1952040;72;22236;-73
2023/05/09 01:28:15;;;;;;;1.95;0.70;;;16.70;99.90;;;;;;1928808;73;21113;-74
2023/05/09 01:33:50;;;;;;;1.42;0.60;;;16.70;99.90;;;;;;1948466;72;22253;-73
2023/05/09 01:36:43;;;;;;;1.32;0.70;;;16.70;99.90;;;;;;1916591;75;21515;-73
2023/05/09 01:42:19;;;;;;;1.10;0.65;;;16.80;99.90;;;;;;1938073;72;22260;-73
2023/05/09 01:45:12;;;;;;;0.85;0.70;;;16.80;99.90;;;;;;1896929;75;21131;-73
2023/05/09 01:48:04;;;;;;;0.75;0.60;;;16.80;99.90;;;;;;1912397;75;21139;-73
2023/05/09 01:50:57;;;;;;;1.62;0.70;;;16.80;99.90;;;;;;1894964;75;21115;-73
2023/05/09 01:53:50;;;;;;;3.50;0.62;;;16.80;99.90;;;;;;1911403;75;21192;-73
2023/05/09 01:56:42;;;;;;;1.67;0.60;;;16.80;99.90;;;;;;1900339;75;21150;-73
2023/05/09 01:59:34;;;;;;;0.60;0.47;;;16.90;99.90;;;;;;1906315;75;21106;-73
2023/05/09 02:05:09;;;;;;;0.60;0.60;;;16.80;99.90;;;;;;1931516;72;22201;-73
2023/05/09 02:10:41;;;;;;;0.72;0.57;;;16.80;99.90;;;;;;1943520;72;22216;-73
2023/05/09 02:13:33;;;;;;;1.20;0.60;;;16.80;99.90;;;;;;1927631;73;21123;-73
2023/05/09 02:16:24;;;;;;;4.92;1.20;;;16.70;99.90;;;;;;1917151;73;21568;-73
2023/05/09 02:19:15;;;;;;;2.30;0.70;;;16.70;99.90;;;;;;1929745;73;21071;-73
2023/05/09 02:24:46;;;;;;;0.50;0.50;;;16.70;99.90;;;;;;1926114;72;22171;-73
2023/05/09 02:27:38;;;;;;;0.78;0.57;;;16.60;99.90;;;;;;1899310;75;21090;-73
2023/05/09 02:30:33;;;;;;;0.95;0.50;;;16.60;99.90;;;;;;1884265;75;21187;-72
2023/05/09 02:33:24;;;;;;;1.25;0.57;;;16.60;99.90;;;;;;1905374;75;21649;-73
2023/05/09 02:36:16;;;;;;;3.37;0.93;;;16.50;99.90;;;;;;1883255;75;21523;-73
2023/05/09 02:39:07;;;;;;;0.95;0.60;;;16.40;99.90;;;;;;1907500;75;21607;-73
2023/05/09 02:44:37;;;;;;;2.17;0.60;;;16.40;99.90;;;;;;1917703;72;22242;-73
2023/05/09 02:50:09;;;;;;;2.45;0.55;;;16.40;99.90;;;;;;1952202;72;22581;-73
2023/05/09 02:53:00;;;;;;;0.70;0.50;;;16.30;99.90;;;;;;1938043;73;21079;-73
2023/05/09 02:55:53;;;;;;;0.50;0.50;;;16.20;99.90;;;;;;1928257;73;21139;-73
2023/05/09 02:58:49;;;;;;;0.57;0.57;;;16.20;99.90;;;;;;1929004;73;21144;-73
2023/05/09 03:01:37;;;;;;;2.25;0.50;;;16.20;99.90;;;;;;1926038;73;21154;-73
2023/05/09 03:04:28;;;;;;;5.87;0.98;;;16.20;99.90;;;;;;1907739;73;21197;-74
2023/05/09 03:09:58;;;;;;;1.07;0.78;;;16.00;99.90;;;;;;1933853;72;22221;-72
2023/05/09 03:12:51;;;;;;;1.20;0.60;;;16.00;99.90;;;;;;1887470;75;21510;-73
2023/05/09 03:15:42;;;;;;;0.93;0.70;;;15.90;99.90;;;;;;1894987;75;21527;-73
2023/05/09 03:18:34;;;;;;;0.60;0.60;;;15.90;99.90;;;;;;1907676;74;21177;-73
2023/05/09 03:21:25;;;;;;;1.05;0.90;;;15.90;99.90;;;;;;1899557;75;21106;-73
2023/05/09 03:24:18;;;;;;;1.47;0.75;;;16.00;99.90;;;;;;1853596;76;21380;-73
2023/05/09 03:29:49;;;;;;;1.45;0.60;;;15.90;99.90;;;;;;1919330;72;22185;-73
2023/05/09 03:35:19;;;;;;;1.75;0.85;;;15.90;99.90;;;;;;1938530;72;22165;-73
2023/05/09 03:38:10;;;;;;;1.22;0.70;;;15.90;99.90;;;;;;1910460;75;21070;-72
2023/05/09 03:41:02;;;;;;;3.20;0.80;;;15.80;99.90;;;;;;1898688;75;21127;-73
2023/05/09 03:43:55;;;;;;;1.40;0.82;;;15.80;99.90;;;;;;1894897;75;21131;-73
2023/05/09 03:46:46;;;;;;;1.40;0.65;;;15.80;99.90;;;;;;1911583;75;21103;-73
2023/05/09 03:52:18;;;;;;;0.50;0.50;;;15.80;99.90;;;;;;1951910;72;22341;-73
2023/05/09 03:55:11;;;;;;;0.93;0.70;;;15.70;99.90;;;;;;1934959;73;21179;-73
2023/05/09 04:00:43;;;;;;;1.42;0.78;;;15.70;99.90;;;;;;1932410;72;22234;-73
2023/05/09 04:06:15;;;;;;;0.98;0.70;;;15.80;99.90;;;;;;1935503;72;22285;-73
2023/05/09 04:09:06;;;;;;;0.93;0.60;;;15.80;99.90;;;;;;1904358;75;21614;-73
2023/05/09 04:14:39;;;;;;;0.62;0.62;;;15.70;99.90;;;;;;1961687;72;22840;-73
2023/05/09 04:20:13;;;;;;;0.68;0.68;;;15.60;99.90;;;;;;1952019;72;22216;-75
2023/05/09 04:25:43;;;;;;;1.95;0.70;;;15.70;99.90;;;;;;1942794;72;22290;-73
2023/05/09 04:28:34;;;;;;;2.40;0.80;;;15.60;99.90;;;;;;1929774;73;21106;-75
2023/05/09 04:31:27;;;;;;;3.10;0.80;;;15.60;99.90;;;;;;1917139;75;21101;-74
2023/05/09 04:36:58;;;;;;;3.47;0.80;;;15.50;99.90;;;;;;1941821;72;22659;-73
2023/05/09 04:39:49;;;;;;;0.75;0.75;;;15.50;99.90;;;;;;1923286;73;21549;-73
2023/05/09 04:42:42;;;;;;;1.02;0.85;;;15.50;99.90;;;;;;1923797;73;21146;-75
2023/05/09 04:45:34;;;;;;;1.90;0.70;;;15.40;99.90;;;;;;1928028;73;21112;-74
2023/05/09 04:48:25;;;;;;;1.05;0.90;;;15.30;99.90;;;;;;1916990;73;21105;-74
2023/05/09 04:51:17;;;;;;;1.82;1.02;;;15.40;99.90;;;;;;1916681;75;21667;-74
2023/05/09 04:54:09;;;;;;;2.05;0.90;;;15.40;99.90;;;;;;1916525;75;21122;-74
2023/05/09 04:57:02;;;;;;;1.35;0.98;;;15.40;99.90;;;;;;1916664;75;21093;-73
2023/05/09 04:59:56;;;;;;;4.15;0.75;;;15.40;99.90;;;;;;1916649;75;21130;-74
2023/05/09 05:05:27;;;;;;;1.67;0.90;;;15.40;99.90;;;;;;1930862;72;22451;-73
2023/05/09 05:08:19;;;;;;;3.40;0.90;;;15.40;99.90;;;;;;1903676;75;21164;-74
2023/05/09 05:11:12;;;;;;;2.33;1.00;;;15.40;99.90;;;;;;1898675;75;21122;-74
2023/05/09 05:14:04;;;;;;;2.98;1.10;;;15.50;99.90;;;;;;1894513;75;21109;-74
2023/05/09 05:16:56;;;;;;;2.25;0.93;;;15.50;99.90;;;;;;1897714;75;21056;-74
2023/05/09 05:19:47;;;;;;;1.72;1.20;;;15.50;99.90;;;;;;1916567;75;21051;-74
2023/05/09 05:22:48;;;;;;;2.08;0.90;;;15.50;99.90;;;;;;1902113;75;21114;-74
2023/05/09 05:25:40;;;;;;;3.35;1.05;;;15.70;99.90;;;;;;1901059;75;21090;-73
2023/05/09 05:31:11;;;;;;;2.87;0.88;;;15.90;99.90;;;;;;1934408;72;22886;-74
2023/05/09 05:36:41;;;;;;;3.72;0.93;;;16.10;99.90;;;;;;1934439;72;22209;-76
2023/05/09 05:39:33;;;;;;;3.05;0.85;;;16.20;99.90;;;;;;1892225;75;21092;-75
2023/05/09 05:42:25;;;;;;;3.00;1.05;;;16.30;99.90;;;;;;1903423;75;21110;-74
2023/05/09 05:45:17;;;;;;;1.12;0.80;;;16.50;99.90;;;;;;1898086;75;21087;-74
2023/05/09 05:48:10;;;;;;;2.02;1.12;;;16.70;99.90;;;;;;1894677;75;21145;-74
2023/05/09 05:51:01;;;;;;;3.00;1.30;;;16.70;99.90;;;;;;1891485;75;21142;-74
2023/05/09 05:53:54;;;;;;;2.35;1.20;;;16.90;99.90;;;;;;1904624;75;21156;-74
2023/05/09 05:56:46;;;;;;;1.87;1.20;;;16.90;99.90;;;;;;1895970;73;21101;-82
2023/05/09 05:59:38;;;;;;;1.25;1.00;;;17.00;99.90;;;;;;1916056;75;21095;-83
2023/05/09 06:02:30;;;;;;;3.40;0.98;;;17.10;99.90;;;;;;1910887;75;21098;-83
2023/05/09 06:05:22;;;;;;;2.62;1.00;;;17.00;99.90;;;;;;1887590;75;21146;-83
2023/05/09 06:08:14;;;;;;;1.10;0.90;;;16.80;99.90;;;;;;1903379;75;21110;-82
2023/05/09 06:11:06;;;;;;;2.92;1.10;;;16.80;99.90;;;;;;1897995;75;21098;-85
2023/05/09 06:13:57;;;;;;;1.52;1.02;;;16.90;99.90;;;;;;1894883;75;21135;-82
2023/05/09 06:16:50;;;;;;;1.30;1.02;;;16.90;99.90;;;;;;1891288;75;21613;-83
2023/05/09 06:19:42;;;;;;;2.42;1.10;;;16.90;99.90;;;;;;1904737;75;21412;-83
2023/05/09 06:22:33;;;;;;;1.80;1.00;;;17.00;99.90;;;;;;1901819;75;21082;-83
2023/05/09 06:25:25;;;;;;;1.42;1.05;;;17.10;99.90;;;;;;1906452;75;21164;-83
2023/05/09 06:28:16;;;;;;;1.17;0.90;;;17.20;99.90;;;;;;1906420;75;21094;-83
2023/05/09 06:31:07;;;;;;;1.45;1.02;;;17.30;99.90;;;;;;1905027;75;21056;-83
2023/05/09 06:33:58;;;;;;;3.02;1.07;;;17.40;99.90;;;;;;1899635;75;21201;-83
2023/05/09 06:36:49;;;;;;;2.60;1.30;;;17.50;99.90;;;;;;1886507;75;21550;-83
2023/05/09 06:39:41;;;;;;;2.90;1.70;;;17.60;99.90;;;;;;1878057;75;21110;-83
2023/05/09 06:42:32;;;;;;;2.25;1.47;;;17.80;99.90;;;;;;1893506;75;21543;-83
2023/05/09 06:45:23;;;;;;;1.62;1.05;;;18.00;99.90;;;;;;1872262;76;21160;-83
2023/05/09 06:48:15;;;;;;;2.37;0.95;;;18.20;99.90;;;;;;1894146;75;21106;-83
2023/05/09 06:51:07;;;;;;;3.77;1.30;;;18.30;99.90;;;;;;1888314;75;21059;-82
2023/05/09 06:53:58;;;;;;;2.15;1.40;;;18.50;99.90;;;;;;1906705;75;21094;-82
2023/05/09 06:56:49;;;;;;;2.60;1.50;;;18.70;99.90;;;;;;1897977;75;21126;-83
2023/05/09 06:59:41;;;;;;;3.08;1.42;;;18.80;99.90;;;;;;1896677;75;21098;-83
2023/05/09 07:02:32;;;;;;;2.42;1.50;;;18.90;99.90;;;;;;1893593;75;21087;-82
2023/05/09 07:05:24;;;;;;;3.22;1.30;;;19.00;99.90;;;;;;1894390;75;21176;-83
2023/05/09 07:08:15;;;;;;;2.60;1.30;;;19.10;99.90;;;;;;1896686;75;21102;-82
2023/05/09 07:11:07;;;;;;;3.17;1.40;;;19.20;99.90;;;;;;1897783;75;21055;-82
2023/05/09 07:13:58;;;;;;;6.50;1.45;;;19.30;99.90;;;;;;1893710;75;21153;-83
2023/05/09 07:16:50;;;;;;;5.30;1.30;;;19.40;99.90;;;;;;1894159;75;21111;-83
2023/05/09 07:19:41;;;;;;;3.58;2.10;;;19.50;99.90;;;;;;1903892;75;21095;-83
2023/05/09 07:22:32;;;;;;;2.42;1.67;;;19.70;99.90;;;;;;1916104;75;21121;-83
2023/05/09 07:25:25;;;;;;;4.83;2.00;;;19.80;99.90;;;;;;1871084;75;21108;-83
2023/05/09 07:28:17;;;;;;;2.72;1.50;;;19.90;99.90;;;;;;1877224;75;21517;-82
2023/05/09 07:31:09;;;;;;;5.65;1.70;;;19.90;99.90;;;;;;1902768;75;22228;-83
2023/05/09 07:34:00;;;;;;;4.95;1.80;;;19.90;99.90;;;;;;1888735;75;21071;-83
2023/05/09 07:36:52;;;;;;;4.22;1.85;;;20.00;99.90;;;;;;1883156;74;21072;-83
2023/05/09 07:39:43;;;;;;;4.15;2.17;;;20.10;99.90;;;;;;1881706;75;21095;-83
2023/05/09 07:42:35;;;;;;;5.87;2.55;;;20.20;99.90;;;;;;1882242;75;21154;-83
2023/05/09 07:45:27;;;;;;;4.05;1.62;;;20.30;99.90;;;;;;1885562;75;21543;-83
2023/05/09 07:48:19;;;;;;;2.52;1.70;;;20.30;99.90;;;;;;1885065;75;21107;-83
2023/05/09 07:51:10;;;;;;;3.22;1.57;;;20.30;99.90;;;;;;1882319;75;21139;-83
2023/05/09 07:54:01;;;;;;;3.17;1.67;;;20.30;99.90;;;;;;1878803;75;21104;-83
2023/05/09 07:56:53;;;;;;;3.08;1.50;;;20.30;99.90;;;;;;1883518;76;21099;-83
2023/05/09 07:59:45;;;;;;;1.77;1.20;;;20.30;99.90;;;;;;1886703;75;21090;-83
2023/05/09 08:02:36;;;;;;;1.80;1.17;;;20.40;99.90;;;;;;1872380;75;21580;-83
2023/05/09 08:05:28;;;;;;;2.22;1.45;;;20.50;99.90;;;;;;1893391;75;21047;-83
2023/05/09 08:08:19;;;;;;;5.33;3.25;;;20.70;99.90;;;;;;1891371;75;21653;-83
2023/05/09 08:11:11;;;;;;;4.37;2.02;;;20.70;99.90;;;;;;1886188;75;21091;-83
2023/05/09 08:14:02;;;;;;;2.62;1.55;;;20.80;99.90;;;;;;1875384;75;21059;-83
2023/05/09 08:16:54;;;;;;;3.25;1.62;;;20.80;99.90;;;;;;1882313;75;21228;-83
2023/05/09 08:19:46;;;;;;;3.95;1.35;;;20.80;99.90;;;;;;1882318;75;21114;-83
2023/05/09 08:22:39;;;;;;;3.33;1.32;;;20.90;99.90;;;;;;1899952;75;21055;-82
2023/05/09 08:25:30;;;;;;;7.20;2.50;;;21.10;99.90;;;;;;1895120;75;21152;-83
2023/05/09 08:28:23;;;;;;;4.67;2.15;;;21.10;99.90;;;;;;1888076;75;21105;-83
2023/05/09 08:31:14;;;;;;;2.35;1.70;;;21.10;99.90;;;;;;1873045;75;21188;-83
2023/05/09 08:34:06;;;;;;;7.85;1.90;;;21.20;99.90;;;;;;1886352;75;21102;-82
2023/05/09 08:36:57;;;;;;;1.87;1.20;;;21.20;99.90;;;;;;1883986;75;21056;-83
2023/05/09 08:39:49;;;;;;;1.30;1.20;;;21.00;99.90;;;;;;1882102;75;21188;-83
2023/05/09 08:42:43;;;;;;;1.47;1.10;;;20.90;99.90;;;;;;1882352;75;21364;-83
2023/05/09 08:45:37;;;;;;;2.77;1.40;;;20.90;99.90;;;;;;1884495;75;21094;-83
2023/05/09 08:48:30;;;;;;;3.45;1.92;;;21.00;99.90;;;;;;1886971;75;21091;-82
2023/05/09 08:51:23;;;;;;;2.92;1.10;;;21.10;99.90;;;;;;1894315;75;21059;-82
2023/05/09 08:54:15;;;;;;;2.25;1.67;;;21.30;99.90;;;;;;1894314;75;21684;-82
2023/05/09 08:57:07;;;;;;;6.25;2.00;;;21.30;99.90;;;;;;1915626;75;21213;-83
2023/05/09 08:59:59;;;;;;;3.87;1.20;;;21.50;99.90;;;;;;1900882;75;21265;-83
2023/05/09 09:02:51;;;;;;;1.67;1.10;;;21.50;99.90;;;;;;1894951;75;21131;-82
2023/05/09 09:05:45;;;;;;;2.00;1.30;;;21.80;99.90;;;;;;1894258;75;21055;-83
2023/05/09 09:08:37;;;;;;;2.75;1.55;;;21.90;99.90;;;;;;1894482;75;21121;-83
2023/05/09 09:11:29;;;;;;;2.98;1.05;;;22.00;99.90;;;;;;1898021;75;21059;-83
2023/05/09 09:14:25;;;;;;;1.55;1.00;;;21.80;99.90;;;;;;1897284;75;21192;-83
2023/05/09 09:17:19;;;;;;;1.12;0.90;;;21.60;99.90;;;;;;1894201;75;21102;-83
2023/05/09 09:20:15;;;;;;;1.82;1.15;;;21.90;99.90;;;;;;1894082;75;21183;-83
2023/05/09 09:23:10;;;;;;;2.35;1.72;;;22.10;99.90;;;;;;1916172;75;21194;-83
2023/05/09 09:26:04;;;;;;;3.25;1.62;;;22.10;99.90;;;;;;1901292;75;21631;-83
2023/05/09 09:28:56;;;;;;;3.22;1.30;;;22.30;99.90;;;;;;1896033;75;21103;-83
2023/05/09 09:31:50;;;;;;;4.60;2.95;;;22.30;99.90;;;;;;1886390;75;21143;-83
2023/05/09 09:34:41;;;;;;;2.15;1.40;;;22.20;99.90;;;;;;1905352;75;21115;-83
2023/05/09 09:37:35;;;;;;;3.70;1.42;;;22.10;99.90;;;;;;1871452;77;21519;-83
2023/05/09 09:40:26;;;;;;;2.08;0.93;;;22.10;99.90;;;;;;1899217;75;21179;-83
2023/05/09 09:43:17;;;;;;;1.92;1.00;;;22.20;99.90;;;;;;1916448;75;21063;-83
2023/05/09 09:46:09;;;;;;;1.30;1.00;;;22.20;99.90;;;;;;1911619;75;21150;-82
2023/05/09 09:49:01;;;;;;;1.67;0.90;;;22.10;99.90;;;;;;1905122;75;21102;-82
2023/05/09 09:51:53;;;;;;;2.25;1.35;;;22.20;99.90;;;;;;1899997;75;21062;-85
2023/05/09 09:54:45;;;;;;;5.08;1.12;;;22.30;99.90;;;;;;1894818;75;21066;-82
2023/05/09 09:57:38;;;;;;;3.10;1.05;;;22.40;99.90;;;;;;1894778;75;21063;-82
2023/05/09 10:03:15;;;;;;;1.42;0.90;;;22.80;99.90;;;;;;1954047;72;22186;-82
2023/05/09 10:06:10;;;;;;;3.20;1.37;;;23.00;99.90;;;;;;1896002;75;21196;-82
2023/05/09 10:09:02;;;;;;;2.25;1.00;;;23.10;99.90;;;;;;1894966;75;21106;-82
2023/05/09 10:11:55;;;;;;;2.17;1.17;;;23.20;99.90;;;;;;1894654;75;21645;-83
2023/05/09 10:14:47;;;;;;;2.52;1.10;;;23.30;99.90;;;;;;1897643;75;21600;-83
2023/05/09 10:17:39;;;;;;;1.45;0.90;;;23.40;99.90;;;;;;1891065;75;21108;-82
2023/05/09 10:20:31;;;;;;;1.90;1.07;;;23.70;99.90;;;;;;1906490;75;21177;-83
2023/05/09 10:23:23;;;;;;;1.47;0.95;;;23.90;99.90;;;;;;1887813;75;21216;-82
2023/05/09 10:26:17;;;;;;;1.92;1.07;;;23.70;99.90;;;;;;1896593;75;21090;-82
2023/05/09 10:29:10;;;;;;;1.12;1.02;;;23.60;99.90;;;;;;1884045;75;21212;-82
2023/05/09 10:34:45;;;;;;;2.35;1.05;;;24.00;99.90;;;;;;1952422;72;22292;-82
2023/05/09 10:37:37;;;;;;;2.25;1.20;;;24.00;99.90;;;;;;1929878;73;21098;-83
2023/05/09 10:40:28;;;;;;;1.37;1.17;;;24.00;99.90;;;;;;1917130;75;21059;-83
2023/05/09 10:43:22;;;;;;;1.50;1.07;;;24.00;99.90;;;;;;1916948;75;21172;-83
2023/05/09 10:46:15;;;;;;;3.62;1.10;;;24.20;99.90;;;;;;1916831;75;21550;-83
2023/05/09 10:49:06;;;;;;;4.37;1.10;;;24.10;99.90;;;;;;1916859;75;21617;-83
2023/05/09 10:51:57;;;;;;;2.33;1.10;;;23.80;99.90;;;;;;1917017;75;21086;-83
2023/05/09 10:54:59;;;;;;;1.82;1.12;;;23.70;99.90;;;;;;1916954;75;21076;-83
2023/05/09 10:57:54;;;;;;;2.35;1.00;;;23.60;99.90;;;;;;1926968;73;21163;-83
2023/05/09 11:00:45;;;;;;;1.20;1.10;;;23.50;99.90;;;;;;1927896;73;21198;-83
2023/05/09 11:03:55;;;;;;;1.80;1.20;;;23.50;99.90;;;;;;1928371;73;21111;-83
2023/05/09 11:06:49;;;;;;;3.30;1.52;;;23.30;99.90;;;;;;1938701;73;21093;-83
2023/05/09 11:09:41;;;;;;;4.58;1.72;;;23.20;99.90;;;;;;1950899;73;21098;-83
2023/05/09 11:12:33;;;;;;;5.42;1.10;;;23.30;99.90;;;;;;1940008;73;21121;-83
2023/05/09 11:15:25;;;;;;;2.83;1.10;;;23.10;99.90;;;;;;1917042;75;21050;-83
2023/05/09 11:18:17;;;;;;;5.95;1.20;;;22.90;99.90;;;;;;1923363;73;21080;-83
2023/05/09 11:21:10;;;;;;;1.92;1.15;;;22.70;99.90;;;;;;1916957;75;21076;-84
2023/05/09 11:24:02;;;;;;;1.65;1.10;;;22.70;99.90;;;;;;1929147;73;21067;-83
2023/05/09 11:26:54;;;;;;;1.25;0.80;;;22.70;99.90;;;;;;1920555;73;21534;-83
2023/05/09 11:29:48;;;;;;;1.07;0.80;;;22.60;99.90;;;;;;1918187;73;21124;-83
2023/05/09 11:32:47;;;;;;;4.22;1.00;;;22.60;99.90;;;;;;1931624;73;21111;-83
2023/05/09 11:35:40;;;;;;;6.30;1.70;;;22.70;99.90;;;;;;1926434;74;21165;-83
2023/05/09 11:38:41;;;;;;;2.37;0.50;;;22.60;99.90;;;;;;1937293;73;21154;-83
2023/05/09 11:41:35;;;;;;;1.95;0.53;;;22.60;99.90;;;;;;1930362;73;21512;-83
2023/05/09 11:44:30;;;;;;;5.00;0.93;;;22.50;99.90;;;;;;1926291;74;21127;-84
2023/05/09 11:47:21;;;;;;;4.12;0.62;;;22.50;99.90;;;;;;1925771;74;21098;-83
2023/05/09 11:50:15;;;;;;;1.47;0.50;;;22.40;99.90;;;;;;1926068;74;21130;-83
2023/05/09 11:53:07;;;;;;;1.15;0.50;;;22.20;99.90;;;;;;1925638;74;21504;-83
2023/05/09 11:56:01;;;;;;;2.37;0.60;;;22.30;99.90;;;;;;1931504;73;21085;-83
2023/05/09 11:58:53;;;;;;;1.05;0.50;;;22.20;99.90;;;;;;1936403;73;21062;-83
2023/05/09 12:01:45;;;;;;;0.93;0.40;;;22.10;99.90;;;;;;1926092;74;21090;-83
2023/05/09 12:04:37;;;;;;;0.80;0.42;;;22.00;99.90;;;;;;1939488;73;21086;-83
2023/05/09 12:07:29;;;;;;;0.75;0.37;;;21.90;99.90;;;;;;1951351;73;21064;-84
2023/05/09 12:10:22;;;;;;;1.37;0.50;;;21.90;99.90;;;;;;1925904;74;21167;-84
2023/05/09 12:13:15;;;;;;;2.25;0.40;;;21.80;99.90;;;;;;1926081;74;21054;-83
2023/05/09 12:16:08;;;;;;;2.20;0.70;;;21.60;99.90;;;;;;1925912;74;21263;-84
2023/05/09 12:19:00;;;;;;;1.30;0.70;;;21.50;99.90;;;;;;1925895;74;21106;-83
2023/05/09 12:21:57;;;;;;;0.62;0.50;;;21.30;99.90;;;;;;1926080;74;21119;-83
2023/05/09 12:24:50;;;;;;;2.92;0.50;;;21.30;99.90;;;;;;1926078;74;21050;-84
2023/05/09 12:27:42;;;;;;;0.75;0.60;;;21.30;99.90;;;;;;1926156;74;21155;-84
2023/05/09 12:30:34;;;;;;;0.98;0.53;;;21.30;99.90;;;;;;1925906;74;21074;-84
2023/05/09 12:33:26;;;;;;;1.30;0.68;;;21.30;99.90;;;;;;1926059;74;21139;-85
2023/05/09 12:36:18;;;;;;;1.57;0.70;;;21.40;99.90;;;;;;1921719;73;21148;-83
2023/05/09 12:39:10;;;;;;;1.27;0.40;;;21.40;99.90;;;;;;1916598;74;21105;-83
2023/05/09 12:42:01;;;;;;;3.72;1.15;;;21.50;99.90;;;;;;1920150;74;21079;-83
2023/05/09 12:44:53;;;;;;;2.90;0.50;;;21.50;99.90;;;;;;1927633;73;21054;-83
2023/05/09 12:47:45;;;;;;;3.67;0.70;;;21.60;99.90;;;;;;1921424;73;21177;-83
2023/05/09 12:50:36;;;;;;;2.00;0.50;;;21.60;99.90;;;;;;1904019;75;21561;-83
2023/05/09 12:53:30;;;;;;;0.72;0.50;;;21.60;99.90;;;;;;1903876;75;21143;-84
2023/05/09 12:56:22;;;;;;;1.62;0.60;;;21.60;99.90;;;;;;1915967;74;21173;-84
2023/05/09 12:59:14;;;;;;;1.30;0.70;;;21.50;99.90;;;;;;1920283;73;21068;-83
2023/05/09 13:02:07;;;;;;;1.77;0.50;;;21.50;99.90;;;;;;1904044;75;21208;-83
2023/05/09 13:05:11;;;;;;;2.52;0.60;;;21.30;99.90;;;;;;1916292;75;21068;-83
2023/05/09 13:08:04;;;;;;;1.37;0.60;;;21.20;99.90;;;;;;1903377;75;21051;-83
2023/05/09 13:10:56;;;;;;;0.80;0.80;;;21.20;99.90;;;;;;1903278;75;21168;-83
2023/05/09 13:13:49;;;;;;;4.37;1.27;;;21.20;99.90;;;;;;1915698;75;21060;-83
2023/05/09 13:16:41;;;;;;;1.47;0.72;;;21.20;99.90;;;;;;1903844;75;21156;-84
2023/05/09 13:19:38;;;;;;;0.78;0.62;;;21.10;99.90;;;;;;1916266;75;21164;-83
2023/05/09 13:22:25;;;;;;;4.37;1.30;;;21.00;99.90;;;;;;1936982;73;21192;-83
2023/05/09 13:25:16;;;;;;;1.77;1.10;;;20.90;99.90;;;;;;1916273;75;21181;-83
2023/05/09 13:28:08;;;;;;;1.35;0.75;;;20.80;99.90;;;;;;1903977;75;21090;-83
2023/05/09 13:31:00;;;;;;;2.27;1.10;;;20.60;99.90;;;;;;1936342;73;21603;-84
2023/05/09 13:33:52;;;;;;;2.62;1.27;;;20.40;99.90;;;;;;1916087;75;21160;-83
2023/05/09 13:36:43;;;;;;;1.90;1.05;;;20.20;99.90;;;;;;1922301;74;21075;-84
2023/05/09 13:39:35;;;;;;;1.90;1.00;;;20.10;99.90;;;;;;1926027;74;21106;-84
2023/05/09 13:42:27;;;;;;;4.40;1.20;;;20.00;99.90;;;;;;1926021;74;21135;-83
2023/05/09 13:45:19;;;;;;;2.20;1.02;;;19.90;99.90;;;;;;1925940;74;21110;-83
2023/05/09 13:48:11;;;;;;;2.37;0.85;;;19.80;99.90;;;;;;1925874;74;21058;-83
2023/05/09 13:51:05;;;;;;;4.70;1.60;;;19.80;99.90;;;;;;1926020;74;21191;-84
2023/05/09 13:53:56;;;;;;;3.12;1.37;;;19.70;99.90;;;;;;1926135;74;21114;-84
2023/05/09 13:56:47;;;;;;;2.55;1.47;;;19.60;99.90;;;;;;1939313;73;21122;-84
2023/05/09 13:59:40;;;;;;;2.42;1.30;;;19.50;99.90;;;;;;1891344;75;21506;-84
2023/05/09 14:02:31;;;;;;;4.67;1.57;;;19.40;99.90;;;;;;1943079;73;21184;-85
2023/05/09 14:05:23;;;;;;;3.77;1.50;;;19.20;99.90;;;;;;1939167;73;21160;-84
2023/05/09 14:08:14;;;;;;;2.90;1.72;;;19.00;99.90;;;;;;1935475;73;21110;-84
2023/05/09 14:11:07;;;;;;;4.10;1.40;;;18.80;99.90;;;;;;1930469;73;21152;-84
2023/05/09 14:13:58;;;;;;;4.70;1.98;;;18.80;99.90;;;;;;1918128;73;21091;-84
2023/05/09 14:16:51;;;;;;;4.22;1.70;;;18.70;99.90;;;;;;1939060;73;21098;-84
2023/05/09 14:19:42;;;;;;;6.62;2.00;;;18.70;99.90;;;;;;1937528;73;21171;-83
2023/05/09 14:22:33;;;;;;;4.65;2.40;;;18.70;99.90;;;;;;1934425;73;21098;-84
2023/05/09 14:25:25;;;;;;;5.05;2.08;;;18.60;99.90;;;;;;1916302;75;21579;-84
2023/05/09 14:28:16;;;;;;;1.47;1.35;;;18.50;99.90;;;;;;1916320;75;21208;-84
2023/05/09 14:31:07;;;;;;;3.77;2.22;;;18.50;99.90;;;;;;1916222;75;21094;-84
2023/05/09 14:34:01;;;;;;;2.52;1.80;;;18.50;99.90;;;;;;1916288;75;21117;-84
2023/05/09 14:36:52;;;;;;;4.35;2.00;;;18.50;99.90;;;;;;1919179;74;21118;-84
2023/05/09 14:39:45;;;;;;;3.10;2.00;;;18.50;99.90;;;;;;1909767;74;21541;-84
2023/05/09 14:42:37;;;;;;;4.90;2.15;;;18.50;99.90;;;;;;1909674;74;21109;-84
2023/05/09 14:45:33;;;;;;;2.75;2.10;;;18.50;99.90;;;;;;1911695;74;21596;-83
2023/05/09 14:48:26;;;;;;;2.30;2.08;;;18.40;99.90;;;;;;1901522;74;21757;-85
2023/05/09 14:51:21;;;;;;;2.22;1.70;;;18.40;99.90;;;;;;1908608;74;21087;-83
2023/05/09 14:54:15;;;;;;;3.15;2.15;;;18.40;99.90;;;;;;1910844;74;21499;-84
2023/05/09 14:57:12;;;;;;;4.80;2.50;;;18.30;99.90;;;;;;1912842;74;21620;-84
2023/05/09 15:00:09;;;;;;;3.08;2.33;;;18.30;99.90;;;;;;1916329;74;21435;-83
2023/05/09 15:03:02;;;;;;;3.67;2.30;;;18.20;99.90;;;;;;1911823;74;21864;-84
2023/05/09 15:05:57;;;;;;;3.72;2.67;;;18.30;99.90;;;;;;1911883;74;21164;-84
2023/05/09 15:08:51;;;;;;;3.98;2.22;;;18.30;99.90;;;;;;1911698;74;21110;-84
2023/05/09 15:11:45;;;;;;;5.20;2.00;;;18.30;99.90;;;;;;1910156;74;21063;-83
2023/05/09 15:14:39;;;;;;;3.65;2.00;;;18.20;99.90;;;;;;1918645;74;21225;-84
2023/05/09 15:17:38;;;;;;;2.25;1.82;;;18.10;99.90;;;;;;1910430;74;21118;-84
2023/05/09 15:20:28;;;;;;;;;;;17.90;99.90;;;;;;1908361;74;21220;-84
2023/05/09 15:23:22;;;;;;;2.30;1.90;;;17.80;99.90;;;;;;1907893;74;20237;-85
2023/05/09 15:29:43;;;;;;;4.20;1.90;;;17.70;99.90;;;;;;1916843;74;21126;-85
2023/05/09 15:32:50;;;;;;;3.75;2.02;;;17.50;99.90;;;;;;1915718;74;21184;-84
2023/05/09 15:35:45;;;;;;;5.35;1.40;;;17.50;99.90;;;;;;1914471;74;21120;-84
2023/05/09 15:38:38;;;;;;;3.30;1.50;;;17.40;99.90;;;;;;1911231;74;21122;-84
2023/05/09 15:44:46;;;;;;;3.45;1.67;;;17.40;99.90;;;;;;1918080;74;21122;-84
2023/05/09 15:47:37;;;;;;;3.02;1.22;;;17.40;99.90;;;;;;1917938;74;21090;-83
2023/05/09 15:54:56;;;;;;;6.10;1.42;;;17.30;99.90;;;;;;1870927;74;21055;-83
2023/05/09 15:57:48;;;;;;;2.12;1.10;;;17.30;99.90;;;;;;1911165;74;21099;-83
2023/05/09 16:00:44;;;;;;;6.42;1.15;;;17.30;99.90;;;;;;1931260;74;21143;-84
2023/05/09 16:03:39;;;;;;;6.05;1.10;;;17.20;99.90;;;;;;1874703;75;21546;-83
2023/05/09 16:06:50;;;;;;;3.35;1.10;;;17.20;99.90;;;;;;1921902;74;21156;-84
2023/05/09 16:09:49;;;;;;;1.57;1.05;;;17.00;99.90;;;;;;1914454;74;22084;-84
2023/05/09 16:12:42;;;;;;;4.37;1.40;;;16.90;99.90;;;;;;1916171;74;21110;-83
2023/05/09 16:15:35;;;;;;;4.58;0.98;;;16.80;99.90;;;;;;1918145;74;21197;-85
2023/05/09 16:18:27;;;;;;;2.42;0.93;;;16.70;99.90;;;;;;1913614;74;21114;-84
2023/05/09 16:21:26;;;;;;;4.90;1.17;;;16.70;99.90;;;;;;1902782;75;21086;-86